createdAt,value
2023-02-21T00:01:35.754Z,8.38
2023-02-21T00:04:04.169Z,6.80
2023-02-21T00:09:00.248Z,7.90
2023-02-21T00:11:30.667Z,9.15
2023-02-21T00:16:26.971Z,9.32
2023-02-21T00:18:55.268Z,9.90
2023-02-21T00:21:24.032Z,10.65
2023-02-21T00:23:52.558Z,9.82
2023-02-21T00:26:21.886Z,11.32
2023-02-21T00:28:50.122Z,11.50
2023-02-21T00:31:20.080Z,10.80
2023-02-21T00:33:48.686Z,11.27
2023-02-21T00:36:18.090Z,11.30
2023-02-21T00:38:46.343Z,12.30
2023-02-21T00:43:43.353Z,13.70
2023-02-21T00:46:11.681Z,13.95
2023-02-21T00:51:08.065Z,13.27
2023-02-21T00:56:04.993Z,13.32
2023-02-21T00:58:33.104Z,13.57
2023-02-21T01:01:01.486Z,12.40
2023-02-21T01:05:57.953Z,14.23
2023-02-21T01:08:26.279Z,14.13
2023-02-21T01:10:57.739Z,13.38
2023-02-21T01:13:28.847Z,12.38
2023-02-21T01:15:57.447Z,12.50
2023-02-21T01:23:21.911Z,13.00
2023-02-21T01:28:18.161Z,13.93
2023-02-21T01:30:46.402Z,13.38
2023-02-21T01:33:15.682Z,13.07
2023-02-21T01:35:43.840Z,15.00
2023-02-21T01:38:12.013Z,12.70
2023-02-21T01:40:41.033Z,13.23
2023-02-21T01:43:21.305Z,12.75
2023-02-21T01:45:54.457Z,12.55
2023-02-21T01:48:24.622Z,13.13
2023-02-21T01:50:54.658Z,13.20
2023-02-21T01:53:27.115Z,12.10
2023-02-21T01:55:57.746Z,12.13
2023-02-21T01:58:27.737Z,12.00
2023-02-21T02:00:56.012Z,13.52
2023-02-21T02:05:59.636Z,11.68
2023-02-21T02:08:31.096Z,11.15
2023-02-21T02:11:31.252Z,11.23
2023-02-21T02:14:23.987Z,12.52
2023-02-21T02:17:07.855Z,12.07
2023-02-21T02:20:02.006Z,11.20
2023-02-21T02:22:40.435Z,10.38
2023-02-21T02:25:28.343Z,11.40
2023-02-21T02:28:18.161Z,11.43
2023-02-21T02:31:05.261Z,10.05
2023-02-21T02:33:45.593Z,10.90
2023-02-21T02:36:37.838Z,11.77
2023-02-21T02:39:27.667Z,11.98
2023-02-21T02:42:24.738Z,9.88
2023-02-21T02:45:08.236Z,10.90
2023-02-21T02:47:39.915Z,11.85
2023-02-21T02:50:10.224Z,11.18
2023-02-21T02:52:38.868Z,11.10
2023-02-21T02:55:46.371Z,11.90
2023-02-21T02:58:16.304Z,11.02
2023-02-21T03:01:05.347Z,9.48
2023-02-21T03:03:46.604Z,10.35
2023-02-21T03:06:24.475Z,9.02
2023-02-21T03:09:08.183Z,10.05
2023-02-21T03:11:43.763Z,10.02
2023-02-21T03:14:17.809Z,9.68
2023-02-21T03:16:52.438Z,9.80
2023-02-21T03:19:36.534Z,11.10
2023-02-21T03:22:18.741Z,9.98
2023-02-21T03:24:50.621Z,9.90
2023-02-21T03:27:21.762Z,10.02
2023-02-21T03:30:05.814Z,10.95
2023-02-21T03:32:42.948Z,10.93
2023-02-21T03:35:11.527Z,10.80
2023-02-21T03:37:49.171Z,9.85
2023-02-21T03:40:24.737Z,8.80
2023-02-21T03:42:55.453Z,10.48
2023-02-21T03:45:25.575Z,10.80
2023-02-21T03:50:52.463Z,10.70
2023-02-21T03:53:21.818Z,9.60
2023-02-21T03:58:24.325Z,9.18
2023-02-21T04:00:53.505Z,9.15
2023-02-21T04:03:22.557Z,10.10
2023-02-21T04:06:02.751Z,9.75
2023-02-21T04:08:32.146Z,9.18
2023-02-21T04:13:32.082Z,9.45
2023-02-21T04:16:01.177Z,9.25
2023-02-21T04:18:29.676Z,10.05
2023-02-21T04:21:01.583Z,10.10
2023-02-21T04:23:30.279Z,9.27
2023-02-21T04:25:58.491Z,10.70
2023-02-21T04:28:33.841Z,9.90
2023-02-21T04:33:30.698Z,9.00
2023-02-21T04:38:35.581Z,9.95
2023-02-21T04:41:04.594Z,11.57
2023-02-21T04:43:33.124Z,9.38
2023-02-21T04:48:30.057Z,11.23
2023-02-21T04:51:13.441Z,10.68
2023-02-21T04:53:43.164Z,12.20
2023-02-21T04:56:11.849Z,10.50
2023-02-21T04:58:45.198Z,10.20
2023-02-21T05:01:15.348Z,10.68
2023-02-21T05:03:43.914Z,11.73
2023-02-21T05:06:17.751Z,10.07
2023-02-21T05:08:46.103Z,11.32
2023-02-21T05:11:14.565Z,10.60
2023-02-21T05:13:44.149Z,11.02
2023-02-21T05:16:12.467Z,11.15
2023-02-21T05:18:43.470Z,11.27
2023-02-21T05:21:12.445Z,10.73
2023-02-21T05:23:41.413Z,10.63
2023-02-21T05:26:12.198Z,9.85
2023-02-21T05:28:42.128Z,9.48
2023-02-21T05:31:12.512Z,10.27
2023-02-21T05:33:40.732Z,10.80
2023-02-21T05:36:09.183Z,10.25
2023-02-21T05:38:49.993Z,9.88
2023-02-21T05:41:19.353Z,9.52
2023-02-21T05:43:49.275Z,9.50
2023-02-21T05:46:31.127Z,9.63
2023-02-21T05:49:00.716Z,9.48
2023-02-21T05:51:34.824Z,9.35
2023-02-21T05:54:03.158Z,9.15
2023-02-21T05:56:31.392Z,9.93
2023-02-21T06:01:27.504Z,9.20
2023-02-21T06:03:55.627Z,9.40
2023-02-21T06:06:23.988Z,8.40
2023-02-21T06:11:29.248Z,8.80
2023-02-21T06:14:00.847Z,9.13
2023-02-21T06:16:33.080Z,8.82
2023-02-21T06:19:11.739Z,8.82
2023-02-21T06:21:40.544Z,8.85
2023-02-21T06:24:12.561Z,8.27
2023-02-21T06:26:40.916Z,9.93
2023-02-21T06:29:09.634Z,8.88
2023-02-21T06:31:38.447Z,8.02
2023-02-21T06:34:07.022Z,7.63
2023-02-21T06:36:35.355Z,7.45
2023-02-21T06:39:04.177Z,8.27
2023-02-21T06:41:33.014Z,8.98
2023-02-21T06:44:01.660Z,8.48
2023-02-21T06:46:31.277Z,8.55
2023-02-21T06:48:59.498Z,7.57
2023-02-21T06:51:27.975Z,7.85
2023-02-21T06:56:36.319Z,8.10
2023-02-21T06:59:06.039Z,8.38
2023-02-21T07:06:20.010Z,8.48
2023-02-21T07:08:48.533Z,8.43
2023-02-21T07:13:53.118Z,8.15
2023-02-21T07:16:21.937Z,6.63
2023-02-21T07:18:50.155Z,7.80
2023-02-21T07:21:21.119Z,8.23
2023-02-21T07:23:49.695Z,6.45
2023-02-21T07:26:17.909Z,7.60
2023-02-21T07:28:55.778Z,7.32
2023-02-21T07:31:24.307Z,7.32
2023-02-21T07:36:20.385Z,6.93
2023-02-21T07:38:48.531Z,7.55
2023-02-21T07:41:17.652Z,6.18
2023-02-21T07:43:45.917Z,7.22
2023-02-21T07:46:16.177Z,7.70
2023-02-21T07:48:44.295Z,7.43
2023-02-21T07:51:12.560Z,7.03
2023-02-21T07:53:41.425Z,8.05
2023-02-21T07:56:09.815Z,6.80
2023-02-21T08:01:09.626Z,6.57
2023-02-21T08:03:37.754Z,6.85
2023-02-21T08:06:06.187Z,6.50
2023-02-21T08:11:02.563Z,6.03
2023-02-21T08:13:30.925Z,6.82
2023-02-21T08:15:59.220Z,7.03
2023-02-21T08:18:27.637Z,6.75
2023-02-21T08:20:57.161Z,6.60
2023-02-21T08:23:25.489Z,6.30
2023-02-21T08:28:21.773Z,6.57
2023-02-21T08:30:50.002Z,6.75
2023-02-21T08:33:18.220Z,6.63
2023-02-21T08:38:14.459Z,5.90
2023-02-21T08:40:42.585Z,7.47
2023-02-21T08:43:10.947Z,7.03
2023-02-21T08:48:07.534Z,6.88
2023-02-21T08:53:03.496Z,6.05
2023-02-21T08:55:31.851Z,7.75
2023-02-21T08:57:59.978Z,6.78
2023-02-21T09:00:28.662Z,6.35
2023-02-21T09:02:58.289Z,7.07
2023-02-21T09:05:31.980Z,6.80
2023-02-21T09:08:01.765Z,6.68
2023-02-21T09:10:32.124Z,7.22
2023-02-21T09:13:00.919Z,6.53
2023-02-21T09:15:29.386Z,7.88
2023-02-21T09:17:57.585Z,6.03
2023-02-21T09:20:27.224Z,6.80
2023-02-21T09:22:55.765Z,6.80
2023-02-21T09:25:25.396Z,6.07
2023-02-21T09:27:55.011Z,6.25
2023-02-21T09:30:25.750Z,6.70
2023-02-21T09:32:55.088Z,7.05
2023-02-21T09:35:23.841Z,6.50
2023-02-21T09:37:51.980Z,7.07
2023-02-21T09:40:36.631Z,5.72
2023-02-21T09:43:06.825Z,6.80
2023-02-21T09:45:36.969Z,6.05
2023-02-21T09:48:20.364Z,6.65
2023-02-21T09:50:55.792Z,7.28
2023-02-21T09:53:30.452Z,6.53
2023-02-21T09:56:04.847Z,7.15
2023-02-21T09:58:33.156Z,6.00
2023-02-21T10:01:09.464Z,6.25
2023-02-21T10:03:46.023Z,6.97
2023-02-21T10:06:23.546Z,6.80
2023-02-21T10:09:06.617Z,6.38
2023-02-21T10:12:09.188Z,6.50
2023-02-21T10:15:10.131Z,6.20
2023-02-21T10:17:58.417Z,6.20
2023-02-21T10:20:35.710Z,6.82
2023-02-21T10:23:06.639Z,5.75
2023-02-21T10:25:35.126Z,6.30
2023-02-21T10:30:40.208Z,6.72
2023-02-21T10:33:08.691Z,6.38
2023-02-21T10:38:11.505Z,6.95
2023-02-21T10:40:58.452Z,6.95
2023-02-21T10:43:37.416Z,7.13
2023-02-21T10:46:26.063Z,7.35
2023-02-21T10:49:00.186Z,7.80
2023-02-21T10:51:33.846Z,7.30
2023-02-21T10:54:24.920Z,6.65
2023-02-21T10:56:54.665Z,6.18
2023-02-21T10:59:23.011Z,6.10
2023-02-21T11:04:21.932Z,6.10
2023-02-21T11:07:11.051Z,7.05
2023-02-21T11:09:44.591Z,6.90
2023-02-21T11:12:29.927Z,6.88
2023-02-21T11:15:04.834Z,6.15
2023-02-21T11:17:33.724Z,5.88
2023-02-21T11:20:01.891Z,5.70
2023-02-21T11:22:36.083Z,6.35
2023-02-21T11:25:08.962Z,6.18
2023-02-21T11:27:38.651Z,6.82
2023-02-21T11:30:21.258Z,6.22
2023-02-21T11:32:54.167Z,6.70
2023-02-21T11:35:31.391Z,5.78
2023-02-21T11:38:07.803Z,5.90
2023-02-21T11:40:49.694Z,5.78
2023-02-21T11:43:29.525Z,6.60
2023-02-21T11:46:19.080Z,6.40
2023-02-21T11:49:05.457Z,6.75
2023-02-21T11:51:55.208Z,6.13
2023-02-21T11:54:30.043Z,6.55
2023-02-21T11:57:12.528Z,6.22
2023-02-21T12:00:06.090Z,6.53
2023-02-21T12:02:56.501Z,6.55
2023-02-21T12:06:06.244Z,7.13
2023-02-21T12:08:48.738Z,5.55
2023-02-21T12:12:01.232Z,6.95
2023-02-21T12:14:51.282Z,7.70
2023-02-21T12:17:38.197Z,7.10
2023-02-21T12:20:09.343Z,6.80
2023-02-21T12:22:43.726Z,6.47
2023-02-21T12:25:38.146Z,6.28
2023-02-21T12:28:52.120Z,6.35
2023-02-21T12:31:44.677Z,6.95
2023-02-21T12:34:22.009Z,5.63
2023-02-21T12:37:09.756Z,6.45
2023-02-21T12:40:16.515Z,6.22
2023-02-21T12:43:07.647Z,6.43
2023-02-21T12:46:05.042Z,7.32
2023-02-21T12:48:37.130Z,6.35
2023-02-21T12:51:09.590Z,6.18
2023-02-21T12:53:47.032Z,6.32
2023-02-21T12:56:33.769Z,5.77
2023-02-21T12:59:23.949Z,6.88
2023-02-21T13:01:57.149Z,6.63
2023-02-21T13:04:43.640Z,6.90
2023-02-21T13:07:21.009Z,5.60
2023-02-21T13:10:01.631Z,6.40
2023-02-21T13:12:34.036Z,6.00
2023-02-21T13:15:16.360Z,6.30
2023-02-21T13:17:49.401Z,6.32
2023-02-21T13:20:21.719Z,7.15
2023-02-21T13:23:27.061Z,7.45
2023-02-21T13:26:27.357Z,7.88
2023-02-21T13:28:57.282Z,7.15
2023-02-21T13:31:36.298Z,6.32
2023-02-21T13:34:08.242Z,7.03
2023-02-21T13:36:39.128Z,6.72
2023-02-21T13:39:10.282Z,7.30
2023-02-21T13:42:09.934Z,7.32
2023-02-21T13:44:47.851Z,6.50
2023-02-21T13:47:18.760Z,7.47
2023-02-21T13:49:58.010Z,6.78
2023-02-21T13:52:28.470Z,6.75
2023-02-21T13:55:18.052Z,6.13
2023-02-21T13:57:48.936Z,6.63
2023-02-21T14:00:22.928Z,6.80
2023-02-21T14:03:09.358Z,6.05
2023-02-21T14:05:49.377Z,7.15
2023-02-21T14:08:28.197Z,6.93
2023-02-21T14:11:08.605Z,6.60
2023-02-21T14:13:52.652Z,6.18
2023-02-21T14:16:47.445Z,6.18
2023-02-21T14:19:34.187Z,6.50
2023-02-21T14:22:13.790Z,6.32
2023-02-21T14:24:47.102Z,7.25
2023-02-21T14:27:15.267Z,6.40
2023-02-21T14:30:03.607Z,7.30
2023-02-21T14:32:39.395Z,6.35
2023-02-21T14:38:29.881Z,5.78
2023-02-21T14:41:13.024Z,6.47
2023-02-21T14:43:59.138Z,5.70
2023-02-21T14:46:56.719Z,6.18
2023-02-21T14:49:57.368Z,6.47
2023-02-21T14:52:44.578Z,7.07
2023-02-21T14:55:49.758Z,5.93
2023-02-21T14:58:54.950Z,5.90
2023-02-21T15:01:41.753Z,6.47
2023-02-21T15:04:18.985Z,6.43
2023-02-21T15:07:09.095Z,6.22
2023-02-21T15:09:37.329Z,6.22
2023-02-21T15:12:16.759Z,7.47
2023-02-21T15:14:52.901Z,7.15
2023-02-21T15:17:24.758Z,6.00
2023-02-21T15:20:25.082Z,7.57
2023-02-21T15:23:08.189Z,6.13
2023-02-21T15:25:36.908Z,6.65
2023-02-21T15:28:08.301Z,6.40
2023-02-21T15:30:43.159Z,6.88
2023-02-21T15:33:18.420Z,6.90
2023-02-21T15:36:00.147Z,7.32
2023-02-21T15:38:28.602Z,6.35
2023-02-21T15:43:47.576Z,6.75
2023-02-21T15:46:25.074Z,6.18
2023-02-21T15:48:56.866Z,7.93
2023-02-21T15:51:26.557Z,7.18
2023-02-21T15:54:34.201Z,7.25
2023-02-21T15:57:09.546Z,6.70
2023-02-21T15:59:40.581Z,6.47
2023-02-21T16:02:24.390Z,6.45
2023-02-21T16:04:53.467Z,6.72
2023-02-21T16:07:47.842Z,7.35
2023-02-21T16:10:16.216Z,7.03
2023-02-21T16:15:23.776Z,7.13
2023-02-21T16:18:00.867Z,6.82
2023-02-21T16:20:43.400Z,6.63
2023-02-21T16:23:42.347Z,6.75
2023-02-21T16:26:10.656Z,7.07
2023-02-21T16:28:43.416Z,6.95
2023-02-21T16:31:26.763Z,6.22
2023-02-21T16:33:55.420Z,6.75
2023-02-21T16:36:28.266Z,6.15
2023-02-21T16:38:58.163Z,7.65
2023-02-21T16:41:26.807Z,6.13
2023-02-21T16:43:55.036Z,7.22
2023-02-21T16:46:30.082Z,7.07
2023-02-21T16:48:58.738Z,6.72
2023-02-21T16:51:27.230Z,6.20
2023-02-21T16:53:55.730Z,5.82
2023-02-21T16:58:55.300Z,6.15
2023-02-21T17:01:35.050Z,7.65
2023-02-21T17:04:07.350Z,6.75
2023-02-21T17:06:35.736Z,6.95
2023-02-21T17:09:03.926Z,8.20
2023-02-21T17:11:32.455Z,6.90
2023-02-21T17:14:00.773Z,7.47
2023-02-21T17:16:29.053Z,7.07
2023-02-21T17:21:25.376Z,7.10
2023-02-21T17:25:57.665Z,7.15
2023-02-21T17:28:26.139Z,7.05
2023-02-21T17:35:53.239Z,7.10
2023-02-21T17:38:21.497Z,6.80
2023-02-21T17:40:49.672Z,6.85
2023-02-21T17:43:18.037Z,6.57
2023-02-21T17:45:46.755Z,7.55
2023-02-21T17:48:14.854Z,7.20
2023-02-21T17:50:43.257Z,6.57
2023-02-21T17:53:11.465Z,7.07
2023-02-21T17:55:39.825Z,5.90
2023-02-21T17:58:08.218Z,6.65
2023-02-21T18:00:36.630Z,6.78
2023-02-21T18:03:05.673Z,6.35
2023-02-21T18:05:34.324Z,6.88
2023-02-21T18:08:02.670Z,6.47
2023-02-21T18:10:31.172Z,6.35
2023-02-21T18:12:59.543Z,6.35
2023-02-21T18:22:52.271Z,6.95
2023-02-21T18:27:48.777Z,6.18
2023-02-21T18:30:18.985Z,7.05
2023-02-21T18:32:48.303Z,7.13
2023-02-21T18:35:17.409Z,5.90
2023-02-21T18:37:46.256Z,6.93
2023-02-21T18:40:19.015Z,7.05
2023-02-21T18:42:47.535Z,6.47
2023-02-21T18:47:43.722Z,6.70
2023-02-21T18:50:14.928Z,6.88
2023-02-21T18:55:11.541Z,6.10
2023-02-21T19:00:08.474Z,6.07
2023-02-21T19:02:36.786Z,6.10
2023-02-21T19:07:32.980Z,6.75
2023-02-21T19:10:01.205Z,6.20
2023-02-21T19:12:29.560Z,6.63
2023-02-21T19:17:25.785Z,5.72
2023-02-21T19:19:54.370Z,6.20
2023-02-21T19:22:31.811Z,6.15
2023-02-21T19:25:00.183Z,7.72
2023-02-21T19:29:56.385Z,6.95
2023-02-21T19:32:25.393Z,6.97
2023-02-21T19:34:53.795Z,6.80
2023-02-21T19:37:22.100Z,6.22
2023-02-21T19:39:50.410Z,6.00
2023-02-21T19:44:46.515Z,6.13
2023-02-21T19:49:42.814Z,6.97
2023-02-21T19:52:10.990Z,6.00
2023-02-21T19:57:07.332Z,7.13
2023-02-21T20:02:41.292Z,6.88
2023-02-21T20:05:09.780Z,6.63
2023-02-21T20:07:38.155Z,7.47
2023-02-21T20:12:34.854Z,6.80
2023-02-21T20:15:04.250Z,7.05
2023-02-21T20:17:35.018Z,7.85
2023-02-21T20:20:07.545Z,7.65
2023-02-21T20:22:40.602Z,7.68
2023-02-21T20:25:09.153Z,8.10
2023-02-21T20:27:37.447Z,7.80
2023-02-21T20:30:06.992Z,8.13
2023-02-21T20:32:35.460Z,7.22
2023-02-21T20:40:00.669Z,7.07
2023-02-21T20:42:28.794Z,8.23
2023-02-21T20:44:57.069Z,8.20
2023-02-21T20:47:25.469Z,8.88
2023-02-21T20:52:21.564Z,7.85
2023-02-21T20:54:51.209Z,7.80
2023-02-21T20:57:19.506Z,7.45
2023-02-21T20:59:48.001Z,7.80
2023-02-21T21:02:19.267Z,7.38
2023-02-21T21:04:47.586Z,7.47
2023-02-21T21:07:19.845Z,8.27
2023-02-21T21:09:49.082Z,7.57
2023-02-21T21:12:20.895Z,8.18
2023-02-21T21:14:51.090Z,9.10
2023-02-21T21:17:21.148Z,8.40
2023-02-21T21:19:53.124Z,8.32
2023-02-21T21:22:27.348Z,8.23
2023-02-21T21:24:56.258Z,8.45
2023-02-21T21:27:24.614Z,8.50
2023-02-21T21:32:24.102Z,8.27
2023-02-21T21:34:58.182Z,8.98
2023-02-21T21:37:28.556Z,8.13
2023-02-21T21:39:57.692Z,8.63
2023-02-21T21:42:28.649Z,8.50
2023-02-21T21:44:58.215Z,10.00
2023-02-21T21:47:31.654Z,9.95
2023-02-21T21:50:00.130Z,10.10
2023-02-21T21:52:28.576Z,9.88
2023-02-21T21:54:56.827Z,10.20
2023-02-21T21:59:55.427Z,9.02
2023-02-21T22:04:51.859Z,9.52
2023-02-21T22:07:20.323Z,8.38
2023-02-21T22:09:48.779Z,9.05
2023-02-21T22:14:45.907Z,9.55
2023-02-21T22:17:14.204Z,9.55
2023-02-21T22:22:10.586Z,8.75
2023-02-21T22:24:41.978Z,9.00
2023-02-21T22:27:10.257Z,9.07
2023-02-21T22:29:38.590Z,10.30
2023-02-21T22:32:07.169Z,9.95
2023-02-21T22:34:35.576Z,8.90
2023-02-21T22:37:04.026Z,9.60
2023-02-21T22:39:32.517Z,9.80
2023-02-21T22:42:00.958Z,9.75
2023-02-21T22:44:29.405Z,9.77
2023-02-21T22:46:57.758Z,10.10
2023-02-21T22:49:29.339Z,10.10
2023-02-21T22:51:58.106Z,10.07
2023-02-21T22:54:27.489Z,9.15
2023-02-21T22:57:02.034Z,10.18
2023-02-21T22:59:30.435Z,9.10
2023-02-21T23:07:02.483Z,8.63
2023-02-21T23:09:31.789Z,7.88
2023-02-21T23:12:01.226Z,9.25
2023-02-21T23:14:30.178Z,8.73
2023-02-21T23:17:01.750Z,9.63
2023-02-21T23:19:31.012Z,9.00
2023-02-21T23:21:59.556Z,9.13
2023-02-21T23:26:55.945Z,8.65
2023-02-21T23:29:27.384Z,8.20
2023-02-21T23:31:56.451Z,8.68
2023-02-21T23:34:24.941Z,8.70
2023-02-21T23:39:21.218Z,8.20
2023-02-21T23:41:49.584Z,9.43
2023-02-21T23:46:46.243Z,8.27
2023-02-21T23:49:15.563Z,8.77
2023-02-21T23:51:44.962Z,8.07
2023-02-21T23:54:13.786Z,7.88
2023-02-21T23:56:42.210Z,8.25
2023-02-21T23:59:10.456Z,8.75
